sensor_id;sensor_type;location;lat;lon;timestamp;pressure;altitude;pressure_sealevel;temperature;humidity
28428;BME280;15662;49.128;8.520;2022-08-19T00:00:45;99971.53;;;27.22;44.62
28428;BME280;15662;49.128;8.520;2022-08-19T00:03:13;99973.72;;;27.19;44.54
28428;BME280;15662;49.128;8.520;2022-08-19T00:05:41;99975.56;;;27.18;44.63
28428;BME280;15662;49.128;8.520;2022-08-19T00:08:10;99971.78;;;27.11;44.60
28428;BME280;15662;49.128;8.520;2022-08-19T00:10:38;99977.41;;;27.10;44.82
28428;BME280;15662;49.128;8.520;2022-08-19T00:13:07;99970.50;;;27.06;44.92
28428;BME280;15662;49.128;8.520;2022-08-19T00:15:35;99991.00;;;27.10;44.75
28428;BME280;15662;49.128;8.520;2022-08-19T00:18:04;99987.25;;;27.11;44.86
28428;BME280;15662;49.128;8.520;2022-08-19T00:20:32;99992.53;;;27.12;44.84
28428;BME280;15662;49.128;8.520;2022-08-19T00:23:01;99981.81;;;27.11;44.88
28428;BME280;15662;49.128;8.520;2022-08-19T00:25:33;99992.06;;;27.17;44.78
28428;BME280;15662;49.128;8.520;2022-08-19T00:28:04;99978.63;;;27.15;44.91
28428;BME280;15662;49.128;8.520;2022-08-19T00:30:33;99977.63;;;27.16;44.81
28428;BME280;15662;49.128;8.520;2022-08-19T00:33:02;99969.06;;;27.11;44.73
28428;BME280;15662;49.128;8.520;2022-08-19T00:35:31;99972.63;;;27.12;44.97
28428;BME280;15662;49.128;8.520;2022-08-19T00:38:00;99980.81;;;27.12;44.95
28428;BME280;15662;49.128;8.520;2022-08-19T00:40:29;100002.41;;;27.13;45.15
28428;BME280;15662;49.128;8.520;2022-08-19T00:42:58;99980.97;;;27.10;45.16
28428;BME280;15662;49.128;8.520;2022-08-19T00:45:28;99993.94;;;27.16;44.92
28428;BME280;15662;49.128;8.520;2022-08-19T00:48:04;100004.13;;;27.14;45.14
28428;BME280;15662;49.128;8.520;2022-08-19T00:50:42;100003.25;;;27.14;45.28
28428;BME280;15662;49.128;8.520;2022-08-19T00:53:23;99984.38;;;27.12;45.32
28428;BME280;15662;49.128;8.520;2022-08-19T00:55:54;99974.66;;;27.10;45.25
28428;BME280;15662;49.128;8.520;2022-08-19T00:58:29;99955.16;;;27.14;45.39
28428;BME280;15662;49.128;8.520;2022-08-19T01:01:00;99946.03;;;27.06;45.66
28428;BME280;15662;49.128;8.520;2022-08-19T01:03:35;99937.31;;;27.02;45.64
28428;BME280;15662;49.128;8.520;2022-08-19T01:06:24;99942.22;;;26.98;45.72
28428;BME280;15662;49.128;8.520;2022-08-19T01:08:53;99960.25;;;26.99;45.71
28428;BME280;15662;49.128;8.520;2022-08-19T01:11:25;99961.56;;;26.95;45.84
28428;BME280;15662;49.128;8.520;2022-08-19T01:13:54;99961.03;;;26.92;45.91
28428;BME280;15662;49.128;8.520;2022-08-19T01:16:26;99966.56;;;27.00;45.70
28428;BME280;15662;49.128;8.520;2022-08-19T01:18:55;99958.84;;;26.95;45.91
28428;BME280;15662;49.128;8.520;2022-08-19T01:21:39;99978.41;;;26.99;45.79
28428;BME280;15662;49.128;8.520;2022-08-19T01:24:08;99980.63;;;26.95;45.98
28428;BME280;15662;49.128;8.520;2022-08-19T01:26:42;99991.16;;;26.98;45.68
28428;BME280;15662;49.128;8.520;2022-08-19T01:29:13;99981.75;;;26.93;46.07
28428;BME280;15662;49.128;8.520;2022-08-19T01:31:42;99977.03;;;26.95;45.99
28428;BME280;15662;49.128;8.520;2022-08-19T01:34:10;99969.34;;;26.90;46.06
28428;BME280;15662;49.128;8.520;2022-08-19T01:36:44;99972.06;;;26.90;46.05
28428;BME280;15662;49.128;8.520;2022-08-19T01:39:23;99978.34;;;26.91;46.10
28428;BME280;15662;49.128;8.520;2022-08-19T01:41:52;99977.09;;;26.85;46.21
28428;BME280;15662;49.128;8.520;2022-08-19T01:44:22;99987.66;;;26.88;46.03
28428;BME280;15662;49.128;8.520;2022-08-19T01:46:52;99997.00;;;26.86;46.18
28428;BME280;15662;49.128;8.520;2022-08-19T01:49:23;99997.00;;;26.86;46.16
28428;BME280;15662;49.128;8.520;2022-08-19T01:51:53;99995.97;;;26.87;46.29
28428;BME280;15662;49.128;8.520;2022-08-19T01:54:24;99988.00;;;26.85;46.23
28428;BME280;15662;49.128;8.520;2022-08-19T01:57:04;99995.97;;;26.87;46.23
28428;BME280;15662;49.128;8.520;2022-08-19T01:59:34;99970.00;;;26.74;46.41
28428;BME280;15662;49.128;8.520;2022-08-19T02:02:06;99986.88;;;26.78;46.42
28428;BME280;15662;49.128;8.520;2022-08-19T02:04:38;99992.16;;;26.80;46.64
28428;BME280;15662;49.128;8.520;2022-08-19T02:07:07;99995.03;;;26.78;46.45
28428;BME280;15662;49.128;8.520;2022-08-19T02:09:36;99974.28;;;26.77;46.57
28428;BME280;15662;49.128;8.520;2022-08-19T02:12:06;99979.91;;;26.75;46.54
28428;BME280;15662;49.128;8.520;2022-08-19T02:14:38;99984.78;;;26.72;46.41
28428;BME280;15662;49.128;8.520;2022-08-19T02:17:06;99993.78;;;26.72;46.59
28428;BME280;15662;49.128;8.520;2022-08-19T02:19:34;99989.53;;;26.70;46.66
28428;BME280;15662;49.128;8.520;2022-08-19T02:22:08;99981.41;;;26.60;46.93
28428;BME280;15662;49.128;8.520;2022-08-19T02:24:38;99989.81;;;26.67;47.05
28428;BME280;15662;49.128;8.520;2022-08-19T02:27:08;99997.56;;;26.62;46.90
28428;BME280;15662;49.128;8.520;2022-08-19T02:29:36;99994.28;;;26.58;47.13
28428;BME280;15662;49.128;8.520;2022-08-19T02:32:04;99987.72;;;26.61;47.07
28428;BME280;15662;49.128;8.520;2022-08-19T02:34:33;99982.72;;;26.56;47.08
28428;BME280;15662;49.128;8.520;2022-08-19T02:37:02;99983.88;;;26.54;47.10
28428;BME280;15662;49.128;8.520;2022-08-19T02:39:31;99979.59;;;26.51;46.99
28428;BME280;15662;49.128;8.520;2022-08-19T02:41:59;99967.19;;;26.39;47.09
28428;BME280;15662;49.128;8.520;2022-08-19T02:44:27;99981.19;;;26.44;47.30
28428;BME280;15662;49.128;8.520;2022-08-19T02:46:59;99973.63;;;26.38;47.20
28428;BME280;15662;49.128;8.520;2022-08-19T02:49:28;99967.78;;;26.33;47.34
28428;BME280;15662;49.128;8.520;2022-08-19T02:52:02;99968.63;;;26.33;47.31
28428;BME280;15662;49.128;8.520;2022-08-19T02:54:33;99960.09;;;26.28;47.44
28428;BME280;15662;49.128;8.520;2022-08-19T02:57:04;99963.66;;;26.29;47.28
28428;BME280;15662;49.128;8.520;2022-08-19T02:59:34;99958.66;;;26.24;47.54
28428;BME280;15662;49.128;8.520;2022-08-19T03:02:03;99958.09;;;26.20;47.54
28428;BME280;15662;49.128;8.520;2022-08-19T03:04:31;99957.41;;;26.18;47.62
28428;BME280;15662;49.128;8.520;2022-08-19T03:07:00;99963.41;;;26.22;47.49
28428;BME280;15662;49.128;8.520;2022-08-19T03:09:38;99961.84;;;26.19;47.53
28428;BME280;15662;49.128;8.520;2022-08-19T03:12:06;99952.75;;;26.11;47.81
28428;BME280;15662;49.128;8.520;2022-08-19T03:14:36;99978.00;;;26.21;47.63
28428;BME280;15662;49.128;8.520;2022-08-19T03:17:07;99976.59;;;26.17;47.77
28428;BME280;15662;49.128;8.520;2022-08-19T03:19:36;99973.47;;;26.12;47.82
28428;BME280;15662;49.128;8.520;2022-08-19T03:22:05;99980.41;;;26.24;47.98
28428;BME280;15662;49.128;8.520;2022-08-19T03:24:33;99986.00;;;26.22;47.94
28428;BME280;15662;49.128;8.520;2022-08-19T03:27:01;99993.53;;;26.29;47.97
28428;BME280;15662;49.128;8.520;2022-08-19T03:29:32;99989.28;;;26.26;47.80
28428;BME280;15662;49.128;8.520;2022-08-19T03:32:10;99994.09;;;26.32;47.71
28428;BME280;15662;49.128;8.520;2022-08-19T03:34:59;99998.25;;;26.36;47.54
28428;BME280;15662;49.128;8.520;2022-08-19T03:37:28;99994.78;;;26.34;47.76
28428;BME280;15662;49.128;8.520;2022-08-19T03:39:57;99989.38;;;26.34;47.64
28428;BME280;15662;49.128;8.520;2022-08-19T03:42:27;99997.06;;;26.39;47.56
28428;BME280;15662;49.128;8.520;2022-08-19T03:45:06;99997.50;;;26.34;47.62
28428;BME280;15662;49.128;8.520;2022-08-19T03:47:36;99997.97;;;26.30;47.76
28428;BME280;15662;49.128;8.520;2022-08-19T03:50:06;99994.41;;;26.29;47.69
28428;BME280;15662;49.128;8.520;2022-08-19T03:52:34;99983.69;;;26.28;47.72
28428;BME280;15662;49.128;8.520;2022-08-19T03:55:06;99976.84;;;26.23;47.90
28428;BME280;15662;49.128;8.520;2022-08-19T03:57:34;99990.56;;;26.22;47.74
28428;BME280;15662;49.128;8.520;2022-08-19T04:00:04;99992.56;;;26.20;47.99
28428;BME280;15662;49.128;8.520;2022-08-19T04:02:42;100004.44;;;26.19;47.96
28428;BME280;15662;49.128;8.520;2022-08-19T04:05:30;99994.34;;;26.11;48.33
28428;BME280;15662;49.128;8.520;2022-08-19T04:07:58;99984.78;;;26.07;48.39
28428;BME280;15662;49.128;8.520;2022-08-19T04:10:28;99982.34;;;26.04;48.34
28428;BME280;15662;49.128;8.520;2022-08-19T04:12:59;99975.81;;;25.97;48.74
28428;BME280;15662;49.128;8.520;2022-08-19T04:15:29;99980.50;;;25.95;48.63
28428;BME280;15662;49.128;8.520;2022-08-19T04:17:59;99983.66;;;25.90;48.55
28428;BME280;15662;49.128;8.520;2022-08-19T04:20:27;99997.66;;;25.95;48.55
28428;BME280;15662;49.128;8.520;2022-08-19T04:22:56;100007.53;;;25.96;48.55
28428;BME280;15662;49.128;8.520;2022-08-19T04:25:25;100010.94;;;25.98;48.87
28428;BME280;15662;49.128;8.520;2022-08-19T04:27:55;100003.94;;;25.96;48.79
28428;BME280;15662;49.128;8.520;2022-08-19T04:30:24;100002.50;;;26.02;48.81
28428;BME280;15662;49.128;8.520;2022-08-19T04:32:52;100001.50;;;26.03;49.06
28428;BME280;15662;49.128;8.520;2022-08-19T04:35:20;99993.66;;;25.99;48.74
28428;BME280;15662;49.128;8.520;2022-08-19T04:37:51;99994.94;;;25.95;48.69
28428;BME280;15662;49.128;8.520;2022-08-19T04:40:19;99999.06;;;25.99;48.88
28428;BME280;15662;49.128;8.520;2022-08-19T04:43:07;100003.81;;;25.97;48.81
28428;BME280;15662;49.128;8.520;2022-08-19T04:45:37;100007.09;;;26.01;48.79
28428;BME280;15662;49.128;8.520;2022-08-19T04:48:12;100005.94;;;26.04;48.86
28428;BME280;15662;49.128;8.520;2022-08-19T04:50:56;100009.50;;;26.04;48.92
28428;BME280;15662;49.128;8.520;2022-08-19T04:53:31;100014.66;;;26.07;48.89
28428;BME280;15662;49.128;8.520;2022-08-19T04:56:10;100015.22;;;26.11;48.83
28428;BME280;15662;49.128;8.520;2022-08-19T04:58:42;100013.34;;;26.11;48.75
28428;BME280;15662;49.128;8.520;2022-08-19T05:01:18;100013.03;;;26.14;48.80
28428;BME280;15662;49.128;8.520;2022-08-19T05:03:48;100012.91;;;26.16;48.84
28428;BME280;15662;49.128;8.520;2022-08-19T05:06:20;100019.72;;;26.20;48.70
28428;BME280;15662;49.128;8.520;2022-08-19T05:08:49;100006.31;;;26.18;48.82
28428;BME280;15662;49.128;8.520;2022-08-19T05:11:31;100016.97;;;26.30;48.60
28428;BME280;15662;49.128;8.520;2022-08-19T05:14:01;100010.56;;;26.31;48.66
28428;BME280;15662;49.128;8.520;2022-08-19T05:16:29;100013.13;;;26.32;48.84
28428;BME280;15662;49.128;8.520;2022-08-19T05:18:58;100014.53;;;26.36;48.76
28428;BME280;15662;49.128;8.520;2022-08-19T05:21:47;100019.97;;;26.36;48.96
28428;BME280;15662;49.128;8.520;2022-08-19T05:24:34;100020.72;;;26.29;48.99
28428;BME280;15662;49.128;8.520;2022-08-19T05:27:03;100042.41;;;26.38;48.71
28428;BME280;15662;49.128;8.520;2022-08-19T05:29:34;100038.44;;;26.42;48.48
28428;BME280;15662;49.128;8.520;2022-08-19T05:32:05;100032.84;;;26.44;48.71
28428;BME280;15662;49.128;8.520;2022-08-19T05:34:38;100035.56;;;26.44;48.86
28428;BME280;15662;49.128;8.520;2022-08-19T05:37:07;100045.28;;;26.46;48.81
28428;BME280;15662;49.128;8.520;2022-08-19T05:39:38;100056.69;;;26.50;48.33
28428;BME280;15662;49.128;8.520;2022-08-19T05:42:11;100064.72;;;26.52;48.48
28428;BME280;15662;49.128;8.520;2022-08-19T05:44:59;100078.88;;;26.55;48.53
28428;BME280;15662;49.128;8.520;2022-08-19T05:47:27;100080.97;;;26.61;48.52
28428;BME280;15662;49.128;8.520;2022-08-19T05:49:55;100080.13;;;26.61;48.42
28428;BME280;15662;49.128;8.520;2022-08-19T05:52:23;100075.81;;;26.58;48.36
28428;BME280;15662;49.128;8.520;2022-08-19T05:54:54;100082.41;;;26.65;48.45
28428;BME280;15662;49.128;8.520;2022-08-19T05:57:24;100090.56;;;26.65;48.42
28428;BME280;15662;49.128;8.520;2022-08-19T05:59:52;100096.84;;;26.66;48.53
28428;BME280;15662;49.128;8.520;2022-08-19T06:02:29;100103.81;;;26.68;48.39
28428;BME280;15662;49.128;8.520;2022-08-19T06:04:58;100096.69;;;26.67;48.46
28428;BME280;15662;49.128;8.520;2022-08-19T06:07:27;100097.53;;;26.68;48.62
28428;BME280;15662;49.128;8.520;2022-08-19T06:09:56;100095.84;;;26.67;48.61
28428;BME280;15662;49.128;8.520;2022-08-19T06:12:29;100098.56;;;26.67;48.42
28428;BME280;15662;49.128;8.520;2022-08-19T06:15:10;100095.84;;;26.67;48.41
28428;BME280;15662;49.128;8.520;2022-08-19T06:17:39;100090.00;;;26.62;48.52
28428;BME280;15662;49.128;8.520;2022-08-19T06:20:13;100087.84;;;26.65;48.47
28428;BME280;15662;49.128;8.520;2022-08-19T06:22:44;100095.09;;;26.65;48.40
28428;BME280;15662;49.128;8.520;2022-08-19T06:25:14;100088.81;;;26.64;48.44
28428;BME280;15662;49.128;8.520;2022-08-19T06:27:43;100089.38;;;26.68;48.29
28428;BME280;15662;49.128;8.520;2022-08-19T06:30:31;100093.81;;;26.69;48.51
28428;BME280;15662;49.128;8.520;2022-08-19T06:32:59;100095.06;;;26.74;48.35
28428;BME280;15662;49.128;8.520;2022-08-19T06:35:28;100087.78;;;26.75;48.27
28428;BME280;15662;49.128;8.520;2022-08-19T06:37:57;100104.19;;;26.83;48.29
28428;BME280;15662;49.128;8.520;2022-08-19T06:40:25;100100.31;;;26.86;48.22
28428;BME280;15662;49.128;8.520;2022-08-19T06:42:55;100109.19;;;26.88;48.09
28428;BME280;15662;49.128;8.520;2022-08-19T06:45:25;100113.31;;;26.92;48.21
28428;BME280;15662;49.128;8.520;2022-08-19T06:48:04;100102.44;;;26.92;48.07
28428;BME280;15662;49.128;8.520;2022-08-19T06:50:33;100111.56;;;27.00;47.99
28428;BME280;15662;49.128;8.520;2022-08-19T06:53:03;100116.97;;;27.10;47.94
28428;BME280;15662;49.128;8.520;2022-08-19T06:55:33;100115.69;;;27.14;47.89
28428;BME280;15662;49.128;8.520;2022-08-19T06:58:04;100108.44;;;27.23;47.80
28428;BME280;15662;49.128;8.520;2022-08-19T07:00:34;100107.53;;;27.32;47.61
28428;BME280;15662;49.128;8.520;2022-08-19T07:03:02;100101.16;;;27.41;47.67
28428;BME280;15662;49.128;8.520;2022-08-19T07:05:41;100109.25;;;27.51;47.22
28428;BME280;15662;49.128;8.520;2022-08-19T07:08:13;100109.41;;;27.49;47.10
28428;BME280;15662;49.128;8.520;2022-08-19T07:10:45;100103.91;;;27.59;46.81
28428;BME280;15662;49.128;8.520;2022-08-19T07:13:15;100098.97;;;27.63;46.79
28428;BME280;15662;49.128;8.520;2022-08-19T07:15:44;100106.69;;;27.67;46.36
28428;BME280;15662;49.128;8.520;2022-08-19T07:18:13;100112.00;;;27.69;46.11
28428;BME280;15662;49.128;8.520;2022-08-19T07:20:41;100119.00;;;27.71;46.16
28428;BME280;15662;49.128;8.520;2022-08-19T07:23:11;100117.69;;;27.75;46.21
28428;BME280;15662;49.128;8.520;2022-08-19T07:25:43;100111.78;;;27.80;46.06
28428;BME280;15662;49.128;8.520;2022-08-19T07:28:19;100126.09;;;27.82;45.92
28428;BME280;15662;49.128;8.520;2022-08-19T07:30:53;100107.72;;;27.84;45.74
28428;BME280;15662;49.128;8.520;2022-08-19T07:33:22;100104.00;;;27.85;45.62
28428;BME280;15662;49.128;8.520;2022-08-19T07:35:49;100111.34;;;27.93;45.82
28428;BME280;15662;49.128;8.520;2022-08-19T07:38:18;100106.47;;;27.96;45.37
28428;BME280;15662;49.128;8.520;2022-08-19T07:40:47;100109.44;;;28.03;45.43
28428;BME280;15662;49.128;8.520;2022-08-19T07:43:15;100111.50;;;28.09;45.04
28428;BME280;15662;49.128;8.520;2022-08-19T07:45:45;100101.63;;;28.08;45.00
28428;BME280;15662;49.128;8.520;2022-08-19T07:48:14;100118.41;;;28.21;44.93
28428;BME280;15662;49.128;8.520;2022-08-19T07:50:44;100121.19;;;28.29;44.87
28428;BME280;15662;49.128;8.520;2022-08-19T07:53:12;100117.84;;;28.36;44.75
28428;BME280;15662;49.128;8.520;2022-08-19T07:55:40;100121.97;;;28.40;44.41
28428;BME280;15662;49.128;8.520;2022-08-19T07:58:14;100123.38;;;28.44;44.42
28428;BME280;15662;49.128;8.520;2022-08-19T08:00:47;100121.00;;;28.49;44.61
28428;BME280;15662;49.128;8.520;2022-08-19T08:03:20;100111.34;;;28.54;44.33
28428;BME280;15662;49.128;8.520;2022-08-19T08:05:49;100115.75;;;28.56;44.27
28428;BME280;15662;49.128;8.520;2022-08-19T08:08:38;100120.91;;;28.59;44.06
28428;BME280;15662;49.128;8.520;2022-08-19T08:11:35;100122.91;;;28.57;44.14
28428;BME280;15662;49.128;8.520;2022-08-19T08:14:06;100109.09;;;28.50;44.27
28428;BME280;15662;49.128;8.520;2022-08-19T08:16:55;100120.31;;;28.47;44.26
28428;BME280;15662;49.128;8.520;2022-08-19T08:19:27;100113.31;;;28.44;44.10
28428;BME280;15662;49.128;8.520;2022-08-19T08:21:58;100112.13;;;28.47;44.12
28428;BME280;15662;49.128;8.520;2022-08-19T08:24:30;100111.50;;;28.53;44.00
28428;BME280;15662;49.128;8.520;2022-08-19T08:27:00;100119.88;;;28.60;44.02
28428;BME280;15662;49.128;8.520;2022-08-19T08:29:30;100114.78;;;28.65;43.89
28428;BME280;15662;49.128;8.520;2022-08-19T08:32:04;100125.75;;;28.73;44.04
28428;BME280;15662;49.128;8.520;2022-08-19T08:34:42;100108.00;;;28.69;43.77
28428;BME280;15662;49.128;8.520;2022-08-19T08:37:10;100122.72;;;28.84;43.46
28428;BME280;15662;49.128;8.520;2022-08-19T08:39:39;100119.34;;;28.90;43.35
28428;BME280;15662;49.128;8.520;2022-08-19T08:42:34;100120.09;;;29.00;43.43
28428;BME280;15662;49.128;8.520;2022-08-19T08:45:13;100116.16;;;28.95;43.14
28428;BME280;15662;49.128;8.520;2022-08-19T08:47:48;100122.34;;;29.05;43.35
28428;BME280;15662;49.128;8.520;2022-08-19T08:50:41;100121.66;;;29.11;42.96
28428;BME280;15662;49.128;8.520;2022-08-19T08:53:18;100126.50;;;29.17;43.02
28428;BME280;15662;49.128;8.520;2022-08-19T08:55:57;100122.91;;;29.17;43.06
28428;BME280;15662;49.128;8.520;2022-08-19T09:01:36;100122.19;;;29.15;42.82
28428;BME280;15662;49.128;8.520;2022-08-19T09:04:07;100125.50;;;29.26;42.26
28428;BME280;15662;49.128;8.520;2022-08-19T09:16:18;100112.03;;;29.33;42.17
28428;BME280;15662;49.128;8.520;2022-08-19T09:19:01;100106.59;;;29.41;42.12
28428;BME280;15662;49.128;8.520;2022-08-19T09:21:29;100113.25;;;29.47;42.12
28428;BME280;15662;49.128;8.520;2022-08-19T09:24:02;100099.47;;;29.57;41.88
28428;BME280;15662;49.128;8.520;2022-08-19T09:26:31;100101.53;;;29.63;41.48
28428;BME280;15662;49.128;8.520;2022-08-19T09:29:15;100115.88;;;29.65;41.00
28428;BME280;15662;49.128;8.520;2022-08-19T09:31:44;100112.81;;;29.68;40.77
28428;BME280;15662;49.128;8.520;2022-08-19T09:34:12;100116.56;;;29.75;40.57
28428;BME280;15662;49.128;8.520;2022-08-19T09:36:50;100112.13;;;29.82;40.83
28428;BME280;15662;49.128;8.520;2022-08-19T09:39:21;100105.81;;;29.81;40.78
28428;BME280;15662;49.128;8.520;2022-08-19T09:41:50;100111.78;;;29.85;40.55
28428;BME280;15662;49.128;8.520;2022-08-19T09:44:19;100098.31;;;29.92;40.31
28428;BME280;15662;49.128;8.520;2022-08-19T09:46:49;100094.56;;;30.01;40.24
28428;BME280;15662;49.128;8.520;2022-08-19T09:49:19;100099.84;;;30.11;39.84
28428;BME280;15662;49.128;8.520;2022-08-19T09:51:52;100099.69;;;30.20;39.51
28428;BME280;15662;49.128;8.520;2022-08-19T09:54:24;100104.13;;;30.21;39.31
28428;BME280;15662;49.128;8.520;2022-08-19T09:56:57;100086.34;;;30.25;39.36
28428;BME280;15662;49.128;8.520;2022-08-19T09:59:26;100113.84;;;30.32;39.31
28428;BME280;15662;49.128;8.520;2022-08-19T10:01:55;100104.59;;;30.41;38.95
28428;BME280;15662;49.128;8.520;2022-08-19T10:04:30;100107.81;;;30.53;39.08
28428;BME280;15662;49.128;8.520;2022-08-19T10:07:17;100105.25;;;30.60;38.94
28428;BME280;15662;49.128;8.520;2022-08-19T10:09:45;100111.22;;;30.71;38.69
28428;BME280;15662;49.128;8.520;2022-08-19T10:12:14;100099.94;;;30.74;38.71
28428;BME280;15662;49.128;8.520;2022-08-19T10:14:47;100116.28;;;30.91;38.55
28428;BME280;15662;49.128;8.520;2022-08-19T10:17:15;100121.16;;;31.03;38.17
28428;BME280;15662;49.128;8.520;2022-08-19T10:19:46;100117.91;;;31.08;37.88
28428;BME280;15662;49.128;8.520;2022-08-19T10:22:23;100130.16;;;31.20;37.55
28428;BME280;15662;49.128;8.520;2022-08-19T10:24:53;100121.44;;;31.25;37.54
28428;BME280;15662;49.128;8.520;2022-08-19T10:27:21;100118.84;;;31.31;37.43
28428;BME280;15662;49.128;8.520;2022-08-19T10:29:52;100101.88;;;31.36;37.38
28428;BME280;15662;49.128;8.520;2022-08-19T10:32:33;100105.41;;;31.45;37.33
28428;BME280;15662;49.128;8.520;2022-08-19T10:35:03;100115.84;;;31.49;37.27
28428;BME280;15662;49.128;8.520;2022-08-19T10:37:37;100111.88;;;31.52;36.94
28428;BME280;15662;49.128;8.520;2022-08-19T10:40:27;100099.91;;;31.53;36.62
28428;BME280;15662;49.128;8.520;2022-08-19T10:42:55;100098.97;;;31.60;36.72
28428;BME280;15662;49.128;8.520;2022-08-19T10:45:24;100094.94;;;31.71;36.33
28428;BME280;15662;49.128;8.520;2022-08-19T10:47:55;100087.16;;;31.60;37.57
28428;BME280;15662;49.128;8.520;2022-08-19T10:50:23;100092.69;;;31.75;36.62
28428;BME280;15662;49.128;8.520;2022-08-19T10:53:10;100100.50;;;31.86;35.87
28428;BME280;15662;49.128;8.520;2022-08-19T10:55:38;100086.66;;;31.88;35.92
28428;BME280;15662;49.128;8.520;2022-08-19T10:58:26;100099.16;;;31.82;35.92
28428;BME280;15662;49.128;8.520;2022-08-19T11:00:57;100087.50;;;31.88;35.97
28428;BME280;15662;49.128;8.520;2022-08-19T11:03:26;100081.53;;;31.84;35.37
28428;BME280;15662;49.128;8.520;2022-08-19T11:06:04;100083.59;;;31.82;35.38
28428;BME280;15662;49.128;8.520;2022-08-19T11:08:34;100071.59;;;31.83;35.38
28428;BME280;15662;49.128;8.520;2022-08-19T11:11:04;100046.97;;;31.75;35.48
28428;BME280;15662;49.128;8.520;2022-08-19T11:13:36;100054.31;;;31.83;35.56
28428;BME280;15662;49.128;8.520;2022-08-19T11:16:15;100055.63;;;31.87;35.52
28428;BME280;15662;49.128;8.520;2022-08-19T11:18:57;100051.97;;;31.95;35.16
28428;BME280;15662;49.128;8.520;2022-08-19T11:21:30;100047.13;;;31.97;35.25
28428;BME280;15662;49.128;8.520;2022-08-19T11:24:06;100044.69;;;32.02;34.72
28428;BME280;15662;49.128;8.520;2022-08-19T11:26:35;100055.09;;;32.06;34.61
28428;BME280;15662;49.128;8.520;2022-08-19T11:29:07;100049.44;;;32.08;34.25
28428;BME280;15662;49.128;8.520;2022-08-19T11:31:44;100045.00;;;32.07;34.45
28428;BME280;15662;49.128;8.520;2022-08-19T11:34:21;100040.47;;;32.14;33.54
28428;BME280;15662;49.128;8.520;2022-08-19T11:37:09;100030.81;;;32.03;33.85
28428;BME280;15662;49.128;8.520;2022-08-19T11:39:38;100039.22;;;32.17;33.60
28428;BME280;15662;49.128;8.520;2022-08-19T11:42:07;100026.56;;;32.16;33.56
28428;BME280;15662;49.128;8.520;2022-08-19T11:44:55;100043.41;;;32.13;33.33
28428;BME280;15662;49.128;8.520;2022-08-19T11:47:23;100044.25;;;32.13;32.89
28428;BME280;15662;49.128;8.520;2022-08-19T11:49:53;100035.28;;;32.19;33.06
28428;BME280;15662;49.128;8.520;2022-08-19T11:52:22;100045.47;;;32.25;33.00
28428;BME280;15662;49.128;8.520;2022-08-19T11:54:52;100038.22;;;32.32;32.90
28428;BME280;15662;49.128;8.520;2022-08-19T11:57:21;100041.28;;;32.38;33.19
28428;BME280;15662;49.128;8.520;2022-08-19T11:59:53;100030.41;;;32.44;33.05
28428;BME280;15662;49.128;8.520;2022-08-19T12:02:23;100035.13;;;32.50;32.70
28428;BME280;15662;49.128;8.520;2022-08-19T12:04:51;100045.34;;;32.56;32.70
28428;BME280;15662;49.128;8.520;2022-08-19T12:07:19;100051.13;;;32.61;32.24
28428;BME280;15662;49.128;8.520;2022-08-19T12:09:49;100030.38;;;32.59;32.40
28428;BME280;15662;49.128;8.520;2022-08-19T12:12:18;100042.47;;;32.65;32.17
28428;BME280;15662;49.128;8.520;2022-08-19T12:14:46;100044.28;;;32.72;32.05
28428;BME280;15662;49.128;8.520;2022-08-19T12:17:15;100057.25;;;32.78;32.10
28428;BME280;15662;49.128;8.520;2022-08-19T12:19:43;100047.38;;;32.84;31.78
28428;BME280;15662;49.128;8.520;2022-08-19T12:22:12;100056.59;;;32.91;31.71
28428;BME280;15662;49.128;8.520;2022-08-19T12:24:40;100038.41;;;32.90;31.66
28428;BME280;15662;49.128;8.520;2022-08-19T12:27:08;100038.78;;;32.87;31.58
28428;BME280;15662;49.128;8.520;2022-08-19T12:29:40;100053.38;;;32.73;32.76
28428;BME280;15662;49.128;8.520;2022-08-19T12:32:09;100040.13;;;32.76;31.83
28428;BME280;15662;49.128;8.520;2022-08-19T12:34:39;100035.34;;;32.85;31.37
28428;BME280;15662;49.128;8.520;2022-08-19T12:37:07;100051.47;;;33.03;30.93
28428;BME280;15662;49.128;8.520;2022-08-19T12:39:39;100042.06;;;33.12;31.11
28428;BME280;15662;49.128;8.520;2022-08-19T12:42:11;100025.19;;;33.15;31.23
28428;BME280;15662;49.128;8.520;2022-08-19T12:44:41;100025.44;;;33.20;30.90
28428;BME280;15662;49.128;8.520;2022-08-19T12:47:12;100032.25;;;33.24;30.82
28428;BME280;15662;49.128;8.520;2022-08-19T12:49:42;100040.13;;;33.27;30.14
28428;BME280;15662;49.128;8.520;2022-08-19T12:52:25;100041.44;;;33.31;30.40
28428;BME280;15662;49.128;8.520;2022-08-19T12:54:56;100052.59;;;33.30;30.09
28428;BME280;15662;49.128;8.520;2022-08-19T12:57:27;100052.16;;;33.26;29.90
28428;BME280;15662;49.128;8.520;2022-08-19T13:00:16;100046.84;;;33.25;30.06
28428;BME280;15662;49.128;8.520;2022-08-19T13:02:48;100043.66;;;33.21;30.07
28428;BME280;15662;49.128;8.520;2022-08-19T13:05:29;100042.34;;;33.17;30.05
28428;BME280;15662;49.128;8.520;2022-08-19T13:08:00;100048.78;;;33.09;29.99
28428;BME280;15662;49.128;8.520;2022-08-19T13:10:33;100055.13;;;33.10;29.87
28428;BME280;15662;49.128;8.520;2022-08-19T13:13:09;100045.97;;;33.03;30.10
28428;BME280;15662;49.128;8.520;2022-08-19T13:15:42;100041.06;;;32.98;30.02
28428;BME280;15662;49.128;8.520;2022-08-19T13:18:13;100042.47;;;32.94;30.34
28428;BME280;15662;49.128;8.520;2022-08-19T13:20:42;100042.56;;;32.86;30.43
28428;BME280;15662;49.128;8.520;2022-08-19T13:23:20;100032.81;;;32.83;30.14
28428;BME280;15662;49.128;8.520;2022-08-19T13:26:00;100033.00;;;32.82;30.19
28428;BME280;15662;49.128;8.520;2022-08-19T13:28:30;100031.41;;;32.73;30.27
28428;BME280;15662;49.128;8.520;2022-08-19T13:31:22;100029.72;;;32.72;30.33